Time;durP1;ratioP1;P1;durP2;ratioP2;P2;SDS_P1;SDS_P2;PMS_P1;PMS_P2;Temp;Humidity;BMP_temperature;BMP_pressure;BME280_temperature;BME280_humidity;BME280_pressure;Samples;Min_cycle;Max_cycle;Signal;HPM_P1;HPM_P2
2024/02/24 00:01:08;;;;;;;4.27;2.40;;;6.50;99.90;;;;;;5033872;28;20495;-61
2024/02/24 00:03:36;;;;;;;3.93;1.90;;;6.50;99.90;;;;;;5031423;28;21480;-61
2024/02/24 00:06:04;;;;;;;2.20;1.70;;;6.50;99.90;;;;;;5027403;28;20522;-61
2024/02/24 00:08:32;;;;;;;2.50;1.67;;;6.50;99.90;;;;;;5031620;28;20656;-60
2024/02/24 00:11:00;;;;;;;3.53;1.83;;;6.50;99.90;;;;;;5032012;28;20983;-61
2024/02/24 00:13:29;;;;;;;4.27;2.10;;;6.50;99.90;;;;;;5027778;28;20505;-60
2024/02/24 00:15:58;;;;;;;2.83;1.70;;;6.50;99.90;;;;;;5029923;28;20585;-60
2024/02/24 00:18:26;;;;;;;2.10;1.90;;;6.50;99.90;;;;;;5030930;28;20918;-60
2024/02/24 00:20:54;;;;;;;3.37;1.80;;;6.40;99.90;;;;;;5036301;28;20539;-60
2024/02/24 00:23:23;;;;;;;3.23;1.93;;;6.40;99.90;;;;;;5031994;28;20583;-60
2024/02/24 00:25:51;;;;;;;2.17;1.97;;;6.40;99.90;;;;;;5036164;28;20490;-61
2024/02/24 00:28:19;;;;;;;1.70;1.57;;;6.30;99.90;;;;;;5038467;28;21082;-61
2024/02/24 00:30:47;;;;;;;2.30;1.70;;;6.30;99.90;;;;;;5036513;28;20470;-61
2024/02/24 00:33:16;;;;;;;2.20;2.00;;;6.30;99.90;;;;;;5035435;28;20558;-60
2024/02/24 00:35:45;;;;;;;2.53;1.73;;;6.20;99.90;;;;;;5032971;28;20580;-60
2024/02/24 00:38:13;;;;;;;1.90;1.67;;;6.20;99.90;;;;;;5030422;28;20486;-60
2024/02/24 00:40:41;;;;;;;2.53;1.60;;;6.20;99.90;;;;;;5032371;28;20499;-61
2024/02/24 00:43:10;;;;;;;3.10;1.70;;;6.10;99.90;;;;;;5036068;28;20558;-60
2024/02/24 00:45:38;;;;;;;2.33;1.80;;;6.10;99.90;;;;;;5031520;28;20867;-61
2024/02/24 00:48:07;;;;;;;2.10;1.60;;;6.10;99.90;;;;;;5035004;28;20497;-60
2024/02/24 00:50:36;;;;;;;2.80;1.63;;;6.10;99.90;;;;;;5031058;28;21433;-61
2024/02/24 00:53:05;;;;;;;2.90;1.73;;;6.00;99.90;;;;;;5036376;28;20470;-60
2024/02/24 00:55:33;;;;;;;2.47;1.90;;;6.00;99.90;;;;;;5035009;28;20911;-61
2024/02/24 00:58:02;;;;;;;2.63;1.90;;;6.00;99.90;;;;;;5030254;28;20574;-60
2024/02/24 01:00:30;;;;;;;2.17;1.70;;;6.00;99.90;;;;;;5031566;28;20483;-61
2024/02/24 01:02:58;;;;;;;2.20;1.63;;;6.00;99.90;;;;;;5033606;28;20475;-61
2024/02/24 01:05:26;;;;;;;2.10;1.77;;;6.00;99.90;;;;;;5030078;28;20489;-60
2024/02/24 01:07:56;;;;;;;4.20;1.90;;;5.90;99.90;;;;;;5034634;28;20549;-61
2024/02/24 01:10:25;;;;;;;1.60;1.50;;;5.90;99.90;;;;;;5030674;28;20472;-60
2024/02/24 01:12:53;;;;;;;3.67;1.60;;;5.90;99.90;;;;;;5030403;28;20474;-61
2024/02/24 01:15:22;;;;;;;1.70;1.50;;;5.90;99.90;;;;;;5029337;28;21016;-60
2024/02/24 01:17:55;;;;;;;2.37;1.53;;;5.90;99.90;;;;;;5036362;28;20937;-60
2024/02/24 01:20:25;;;;;;;2.73;1.40;;;5.90;99.90;;;;;;5031749;28;20491;-61
2024/02/24 01:22:57;;;;;;;2.50;1.60;;;5.80;99.90;;;;;;5030354;28;21232;-62
2024/02/24 01:25:25;;;;;;;1.63;1.53;;;5.80;99.90;;;;;;5031328;28;20838;-61
2024/02/24 01:27:54;;;;;;;3.03;1.50;;;5.80;99.90;;;;;;5029450;28;20503;-61
2024/02/24 01:30:23;;;;;;;3.43;1.77;;;5.80;99.90;;;;;;5033023;28;20499;-61
2024/02/24 01:32:51;;;;;;;3.23;1.70;;;5.70;99.90;;;;;;5033916;28;20486;-61
2024/02/24 01:35:19;;;;;;;3.13;1.90;;;5.70;99.90;;;;;;5028759;28;20470;-61
2024/02/24 01:37:47;;;;;;;1.50;1.40;;;5.70;99.90;;;;;;5025152;28;20486;-60
2024/02/24 01:40:16;;;;;;;2.97;1.80;;;5.60;99.90;;;;;;5033853;28;20464;-61
2024/02/24 01:42:44;;;;;;;2.50;1.67;;;5.60;99.90;;;;;;5026092;28;20551;-61
2024/02/24 01:45:14;;;;;;;1.67;1.40;;;5.60;99.90;;;;;;5031886;28;20553;-61
2024/02/24 01:47:42;;;;;;;2.17;1.60;;;5.60;99.90;;;;;;5033517;28;20967;-60
2024/02/24 01:50:11;;;;;;;3.03;1.73;;;5.50;99.90;;;;;;5032981;28;21058;-61
2024/02/24 01:52:40;;;;;;;3.87;2.00;;;5.50;99.90;;;;;;5022992;28;20501;-61
2024/02/24 01:55:10;;;;;;;3.13;1.80;;;5.40;99.90;;;;;;5026280;28;21760;-61
2024/02/24 01:57:42;;;;;;;2.00;1.47;;;5.40;99.90;;;;;;5032394;28;20496;-60
2024/02/24 02:00:12;;;;;;;2.93;1.97;;;5.40;99.90;;;;;;5031227;28;20593;-60
2024/02/24 02:02:40;;;;;;;3.00;2.10;;;5.40;99.90;;;;;;5027489;28;20874;-61
2024/02/24 02:05:09;;;;;;;2.67;1.63;;;5.30;99.90;;;;;;5029487;28;20527;-60
2024/02/24 02:07:39;;;;;;;4.83;1.90;;;5.30;99.90;;;;;;5031440;28;20486;-61
2024/02/24 02:10:07;;;;;;;1.60;1.47;;;5.30;99.90;;;;;;5034997;28;20942;-60
2024/02/24 02:12:35;;;;;;;2.20;1.60;;;5.30;99.90;;;;;;5031364;28;20911;-60
2024/02/24 02:15:06;;;;;;;2.33;1.63;;;5.30;99.90;;;;;;5032250;28;20513;-58
2024/02/24 02:17:35;;;;;;;2.30;1.63;;;5.30;99.90;;;;;;5021789;28;20917;-61
2024/02/24 02:20:04;;;;;;;2.10;1.90;;;5.30;99.90;;;;;;5029492;28;20506;-61
2024/02/24 02:22:33;;;;;;;2.90;1.83;;;5.20;99.90;;;;;;5030258;28;20482;-61
2024/02/24 02:25:01;;;;;;;4.03;2.00;;;5.20;99.90;;;;;;5028059;28;20466;-61
2024/02/24 02:27:29;;;;;;;1.97;1.77;;;5.20;99.90;;;;;;5031513;28;20556;-60
2024/02/24 02:29:59;;;;;;;3.43;1.73;;;5.20;99.90;;;;;;5026579;28;20467;-61
2024/02/24 02:32:28;;;;;;;1.90;1.70;;;5.10;99.90;;;;;;5032647;28;20450;-61
2024/02/24 02:34:56;;;;;;;2.63;1.70;;;5.10;99.90;;;;;;5032296;28;20562;-61
2024/02/24 02:37:24;;;;;;;2.57;2.10;;;5.10;99.90;;;;;;5035533;28;20621;-61
2024/02/24 02:39:53;;;;;;;2.60;1.73;;;5.10;99.90;;;;;;5029855;28;20562;-61
2024/02/24 02:42:21;;;;;;;4.83;3.20;;;5.00;99.90;;;;;;5032293;28;20494;-61
2024/02/24 02:44:49;;;;;;;2.70;1.67;;;5.00;99.90;;;;;;5030961;28;20497;-61
2024/02/24 02:47:17;;;;;;;2.30;1.70;;;5.00;99.90;;;;;;5034825;28;20485;-60
2024/02/24 02:49:51;;;;;;;3.70;1.90;;;5.00;99.90;;;;;;5030591;28;22387;-61
2024/02/24 02:52:19;;;;;;;2.00;1.80;;;5.00;99.90;;;;;;5033757;28;20461;-60
2024/02/24 02:54:47;;;;;;;2.27;2.07;;;5.00;99.90;;;;;;5030450;28;20463;-60
2024/02/24 02:57:16;;;;;;;3.30;2.50;;;5.00;99.90;;;;;;5031532;28;20545;-60
2024/02/24 02:59:44;;;;;;;2.63;2.13;;;5.00;99.90;;;;;;5030794;28;20562;-61
2024/02/24 03:02:12;;;;;;;4.90;1.93;;;4.90;99.90;;;;;;5026155;28;20494;-61
2024/02/24 03:04:40;;;;;;;2.40;1.80;;;4.90;99.90;;;;;;5031055;28;20466;-61
2024/02/24 03:07:08;;;;;;;2.40;1.80;;;4.90;99.90;;;;;;5031006;28;20586;-61
2024/02/24 03:09:36;;;;;;;2.70;1.80;;;4.90;99.90;;;;;;5027329;28;20925;-61
2024/02/24 03:12:04;;;;;;;3.47;2.13;;;4.90;99.90;;;;;;5031714;28;20459;-60
2024/02/24 03:14:34;;;;;;;6.20;1.90;;;4.80;99.90;;;;;;5022606;28;20483;-60
2024/02/24 03:17:02;;;;;;;2.93;1.97;;;4.90;99.90;;;;;;5032775;28;20481;-61
2024/02/24 03:19:30;;;;;;;4.03;2.00;;;4.80;99.90;;;;;;5031525;28;20476;-63
2024/02/24 03:21:58;;;;;;;4.30;2.30;;;4.80;99.90;;;;;;5032653;28;20587;-60
2024/02/24 03:24:26;;;;;;;6.03;2.23;;;4.80;99.90;;;;;;5027950;28;20842;-60
2024/02/24 03:26:54;;;;;;;2.30;2.10;;;4.80;99.90;;;;;;5029900;28;20496;-61
2024/02/24 03:29:22;;;;;;;2.77;1.97;;;4.70;99.90;;;;;;5031772;28;20479;-63
2024/02/24 03:31:51;;;;;;;2.40;2.03;;;4.80;99.90;;;;;;5032329;28;20976;-61
2024/02/24 03:34:19;;;;;;;3.83;2.57;;;4.80;99.90;;;;;;5028271;28;20470;-61
2024/02/24 03:36:47;;;;;;;2.57;2.00;;;4.70;99.90;;;;;;5028299;28;20888;-60
2024/02/24 03:39:15;;;;;;;2.90;1.90;;;4.70;99.90;;;;;;5027233;28;21954;-61
2024/02/24 03:41:43;;;;;;;3.20;2.30;;;4.70;99.90;;;;;;5032402;28;21062;-60
2024/02/24 03:44:11;;;;;;;2.90;1.87;;;4.70;99.90;;;;;;5033776;28;20481;-61
2024/02/24 03:46:39;;;;;;;1.93;1.83;;;4.60;99.90;;;;;;5032313;28;20876;-63
2024/02/24 03:49:09;;;;;;;5.00;2.27;;;4.60;99.90;;;;;;5029331;28;20514;-63
2024/02/24 03:51:37;;;;;;;2.60;2.13;;;4.60;99.90;;;;;;5032588;28;20979;-63
2024/02/24 03:54:05;;;;;;;2.03;1.80;;;4.60;99.90;;;;;;5032596;28;20998;-62
2024/02/24 03:56:33;;;;;;;2.47;1.90;;;4.60;99.90;;;;;;5034466;28;20617;-63
2024/02/24 03:59:01;;;;;;;2.70;2.10;;;4.60;99.90;;;;;;5037660;28;20514;-63
2024/02/24 04:01:29;;;;;;;3.77;2.03;;;4.50;99.90;;;;;;5036903;28;20660;-60
2024/02/24 04:03:57;;;;;;;2.07;1.87;;;4.50;99.90;;;;;;5034965;28;20603;-63
2024/02/24 04:06:26;;;;;;;2.60;1.97;;;4.50;99.90;;;;;;5031363;28;20490;-63
2024/02/24 04:08:54;;;;;;;2.00;1.80;;;4.50;99.90;;;;;;5032595;28;20489;-61
2024/02/24 04:11:23;;;;;;;2.13;1.90;;;4.50;99.90;;;;;;5033087;28;20470;-63
2024/02/24 04:13:51;;;;;;;2.23;2.00;;;4.50;99.90;;;;;;5035007;28;20466;-60
2024/02/24 04:16:18;;;;;;;2.40;2.10;;;4.50;99.90;;;;;;5033660;28;20520;-62
2024/02/24 04:18:46;;;;;;;3.57;2.03;;;4.50;99.90;;;;;;5030198;28;20864;-61
2024/02/24 04:21:17;;;;;;;5.87;2.30;;;4.50;99.90;;;;;;5032172;28;20552;-61
2024/02/24 04:23:46;;;;;;;2.93;2.10;;;4.50;99.90;;;;;;5033549;28;20548;-60
2024/02/24 04:26:14;;;;;;;1.87;1.77;;;4.40;99.90;;;;;;5032518;28;20572;-61
2024/02/24 04:28:42;;;;;;;5.60;2.27;;;4.40;99.90;;;;;;5032403;28;20559;-60
2024/02/24 04:31:10;;;;;;;2.10;1.90;;;4.40;99.90;;;;;;5034159;28;20558;-60
2024/02/24 04:33:38;;;;;;;2.83;2.33;;;4.40;99.90;;;;;;5035541;28;20551;-62
2024/02/24 04:36:07;;;;;;;3.77;2.23;;;4.40;99.90;;;;;;5032829;28;20498;-62
2024/02/24 04:38:35;;;;;;;2.73;1.90;;;4.40;99.90;;;;;;5034773;28;20478;-62
2024/02/24 04:41:04;;;;;;;3.10;2.20;;;4.40;99.90;;;;;;5036194;28;20474;-62
2024/02/24 04:43:33;;;;;;;2.40;2.20;;;4.40;99.90;;;;;;5035841;28;20486;-62
2024/02/24 04:46:04;;;;;;;4.43;2.20;;;4.30;99.90;;;;;;5032815;28;20486;-61
2024/02/24 04:48:32;;;;;;;2.10;1.70;;;4.30;99.90;;;;;;5037436;28;20493;-62
2024/02/24 04:51:00;;;;;;;2.03;1.90;;;4.30;99.90;;;;;;5026330;28;20495;-60
2024/02/24 04:53:30;;;;;;;3.20;2.37;;;4.30;99.90;;;;;;5034730;28;20471;-60
2024/02/24 04:55:58;;;;;;;3.40;2.30;;;4.20;99.90;;;;;;5036114;28;20497;-60
2024/02/24 04:58:28;;;;;;;2.60;2.30;;;4.20;99.90;;;;;;5031179;28;20598;-60
2024/02/24 05:00:56;;;;;;;2.40;2.00;;;4.20;99.90;;;;;;5035095;28;20478;-60
2024/02/24 05:03:24;;;;;;;3.40;2.27;;;4.20;99.90;;;;;;5034422;28;21050;-60
2024/02/24 05:05:52;;;;;;;2.23;2.00;;;4.20;99.90;;;;;;5033971;28;20479;-60
2024/02/24 05:08:20;;;;;;;4.97;2.20;;;4.20;99.90;;;;;;5030898;28;20587;-61
2024/02/24 05:10:48;;;;;;;3.43;1.73;;;4.20;99.90;;;;;;5037107;28;21052;-61
2024/02/24 05:13:16;;;;;;;3.60;2.33;;;4.20;99.90;;;;;;5037838;28;20481;-61
2024/02/24 05:15:45;;;;;;;6.20;2.50;;;4.10;99.90;;;;;;5037873;28;20499;-61
2024/02/24 05:18:13;;;;;;;2.77;2.13;;;4.10;99.90;;;;;;5035502;28;20658;-61
2024/02/24 05:20:41;;;;;;;2.97;2.30;;;4.10;99.90;;;;;;5036378;28;20566;-60
2024/02/24 05:23:09;;;;;;;2.50;1.87;;;4.10;99.90;;;;;;5033831;28;20499;-61
2024/02/24 05:25:37;;;;;;;3.83;2.03;;;4.10;99.90;;;;;;5038232;28;20478;-60
2024/02/24 05:28:06;;;;;;;4.13;2.50;;;4.10;99.90;;;;;;5035987;28;20596;-61
2024/02/24 05:30:34;;;;;;;4.13;2.00;;;4.10;99.90;;;;;;5036000;28;20470;-61
2024/02/24 05:33:03;;;;;;;3.10;2.50;;;4.10;99.90;;;;;;5036594;28;20968;-61
2024/02/24 05:35:32;;;;;;;3.63;2.17;;;4.10;99.90;;;;;;5035633;28;20489;-62
2024/02/24 05:38:00;;;;;;;4.00;2.03;;;4.10;99.90;;;;;;5028464;28;20489;-60
2024/02/24 05:40:28;;;;;;;3.90;2.30;;;4.10;99.90;;;;;;5036448;28;20566;-61
2024/02/24 05:42:56;;;;;;;2.30;2.07;;;4.10;99.90;;;;;;5033090;28;20516;-60
2024/02/24 05:45:24;;;;;;;2.70;2.03;;;4.10;99.90;;;;;;5033203;28;20483;-60
2024/02/24 05:47:52;;;;;;;3.13;2.57;;;4.10;99.90;;;;;;5034584;28;20853;-61
2024/02/24 05:50:21;;;;;;;2.57;2.20;;;4.10;99.90;;;;;;5032534;28;20470;-61
2024/02/24 05:52:49;;;;;;;2.80;1.87;;;4.10;99.90;;;;;;5032629;28;20477;-61
2024/02/24 05:55:17;;;;;;;2.17;1.93;;;4.10;99.90;;;;;;5029757;28;20995;-60
2024/02/24 05:57:45;;;;;;;2.50;2.30;;;4.10;99.90;;;;;;5027487;28;20495;-61
2024/02/24 06:00:15;;;;;;;2.97;2.27;;;4.10;99.90;;;;;;5027727;28;20503;-61
2024/02/24 06:02:43;;;;;;;3.87;2.20;;;4.10;99.90;;;;;;5028925;28;20612;-60
2024/02/24 06:05:11;;;;;;;3.20;2.63;;;4.10;99.90;;;;;;5030391;28;20497;-61
2024/02/24 06:07:40;;;;;;;3.27;2.00;;;4.10;99.90;;;;;;5032736;28;20606;-60
2024/02/24 06:10:09;;;;;;;2.93;2.63;;;4.20;99.90;;;;;;5027916;28;20570;-61
2024/02/24 06:12:37;;;;;;;4.50;2.17;;;4.10;99.90;;;;;;5036873;28;20521;-61
2024/02/24 06:15:06;;;;;;;6.07;2.20;;;4.10;99.90;;;;;;5031673;28;20525;-61
2024/02/24 06:17:34;;;;;;;4.37;1.97;;;4.10;99.90;;;;;;5033646;28;21094;-61
2024/02/24 06:20:02;;;;;;;3.27;2.70;;;4.10;99.90;;;;;;5032702;28;20557;-62
2024/02/24 06:22:30;;;;;;;2.57;2.20;;;4.10;99.90;;;;;;5029282;28;20482;-60
2024/02/24 06:24:59;;;;;;;2.67;2.17;;;4.20;99.90;;;;;;5028777;28;21075;-60
2024/02/24 06:27:29;;;;;;;2.37;2.13;;;4.10;99.90;;;;;;5032417;28;20552;-60
2024/02/24 06:29:57;;;;;;;2.73;2.23;;;4.10;99.90;;;;;;5034536;28;20524;-62
2024/02/24 06:32:25;;;;;;;3.10;2.10;;;4.10;99.90;;;;;;5032587;28;20471;-62
2024/02/24 06:34:53;;;;;;;3.10;2.23;;;4.20;99.90;;;;;;5035561;28;20854;-62
2024/02/24 06:37:21;;;;;;;3.10;2.03;;;4.10;99.90;;;;;;5035562;28;20566;-61
2024/02/24 06:39:49;;;;;;;2.70;2.10;;;4.20;99.90;;;;;;5031437;28;20913;-61
2024/02/24 06:42:19;;;;;;;3.03;2.47;;;4.20;99.90;;;;;;5034720;28;20477;-61
2024/02/24 06:44:47;;;;;;;3.93;2.70;;;4.20;99.90;;;;;;5037102;28;20505;-61
2024/02/24 06:47:15;;;;;;;3.10;2.63;;;4.20;99.90;;;;;;5033793;28;20709;-61
2024/02/24 06:49:56;;;;;;;2.80;2.40;;;4.20;99.90;;;;;;5033988;28;20473;-61
2024/02/24 06:52:24;;;;;;;4.47;2.47;;;4.20;99.90;;;;;;5037131;28;20463;-62
2024/02/24 06:54:52;;;;;;;2.40;2.13;;;4.20;99.90;;;;;;5030743;28;21106;-62
2024/02/24 06:57:21;;;;;;;2.30;2.10;;;4.20;99.90;;;;;;5031181;28;20495;-62
2024/02/24 06:59:49;;;;;;;3.50;2.33;;;4.20;99.90;;;;;;5030177;28;20558;-61
2024/02/24 07:02:18;;;;;;;3.90;2.60;;;4.20;99.90;;;;;;5024347;28;20466;-62
2024/02/24 07:04:46;;;;;;;2.60;2.40;;;4.20;99.90;;;;;;5033114;28;20919;-61
2024/02/24 07:07:14;;;;;;;4.10;2.30;;;4.20;99.90;;;;;;5024313;28;21067;-61
2024/02/24 07:09:42;;;;;;;2.97;2.40;;;4.20;99.90;;;;;;5033015;28;20474;-61
2024/02/24 07:12:10;;;;;;;3.40;2.63;;;4.30;99.90;;;;;;5028556;28;20850;-60
2024/02/24 07:14:39;;;;;;;5.03;2.60;;;4.30;99.90;;;;;;5026646;28;21037;-61
2024/02/24 07:17:08;;;;;;;3.90;2.53;;;4.30;99.90;;;;;;5030015;28;21406;-60
2024/02/24 07:19:36;;;;;;;3.50;2.70;;;4.30;99.90;;;;;;5027300;28;20847;-61
2024/02/24 07:22:04;;;;;;;3.60;2.60;;;4.30;99.90;;;;;;5030597;28;21033;-61
2024/02/24 07:24:32;;;;;;;3.33;2.50;;;4.30;99.90;;;;;;5027611;28;20510;-61
2024/02/24 07:27:00;;;;;;;3.93;2.60;;;4.30;99.90;;;;;;5030162;28;20573;-60
2024/02/24 07:29:29;;;;;;;2.97;2.10;;;4.30;99.90;;;;;;5034755;28;21002;-61
2024/02/24 07:31:58;;;;;;;3.47;2.40;;;4.30;99.90;;;;;;5035336;28;20915;-61
2024/02/24 07:34:26;;;;;;;2.77;2.57;;;4.30;99.90;;;;;;5030241;28;20965;-60
2024/02/24 07:36:54;;;;;;;4.13;1.93;;;4.40;99.90;;;;;;5035737;28;21070;-61
2024/02/24 07:39:22;;;;;;;3.10;2.70;;;4.40;99.90;;;;;;5037987;28;20562;-61
2024/02/24 07:41:50;;;;;;;5.50;2.53;;;4.50;99.90;;;;;;5033452;28;20466;-61
2024/02/24 07:44:18;;;;;;;5.13;2.43;;;4.50;99.90;;;;;;5029811;28;20573;-61
2024/02/24 07:46:47;;;;;;;3.67;3.00;;;4.50;99.90;;;;;;5034519;28;20486;-61
2024/02/24 07:49:16;;;;;;;2.87;2.10;;;4.60;99.90;;;;;;5034152;28;20527;-60
2024/02/24 07:51:44;;;;;;;3.93;2.50;;;4.60;99.90;;;;;;5022315;28;20477;-60
2024/02/24 07:54:12;;;;;;;3.90;2.50;;;4.60;99.90;;;;;;5033147;28;20590;-61
2024/02/24 07:56:40;;;;;;;4.23;2.40;;;4.70;99.90;;;;;;5031601;28;20491;-60
2024/02/24 07:59:09;;;;;;;3.70;2.50;;;4.70;99.90;;;;;;5029409;28;20532;-61
2024/02/24 08:01:37;;;;;;;2.90;2.50;;;4.80;99.90;;;;;;5032465;28;20565;-61
2024/02/24 08:04:05;;;;;;;4.33;2.60;;;4.80;99.90;;;;;;5029375;28;20503;-61
2024/02/24 08:06:34;;;;;;;3.03;2.77;;;4.80;99.90;;;;;;5033455;28;21005;-61
2024/02/24 08:09:02;;;;;;;7.10;2.67;;;4.80;99.90;;;;;;5026964;28;20491;-61
2024/02/24 08:11:39;;;;;;;4.67;3.00;;;4.80;99.90;;;;;;5024461;28;20477;-68
2024/02/24 08:14:08;;;;;;;4.20;2.83;;;4.80;99.90;;;;;;5026297;28;20470;-61
2024/02/24 08:16:36;;;;;;;6.10;2.63;;;4.90;99.90;;;;;;5029899;28;20529;-61
2024/02/24 08:19:05;;;;;;;3.20;2.20;;;4.90;99.90;;;;;;5032028;28;20501;-60
2024/02/24 08:21:37;;;;;;;2.70;2.50;;;4.90;99.90;;;;;;5035332;28;20475;-61
2024/02/24 08:24:07;;;;;;;5.50;2.90;;;5.00;99.90;;;;;;5025440;28;20481;-60
2024/02/24 08:26:38;;;;;;;4.57;3.23;;;5.00;99.90;;;;;;5001204;28;21007;-61
2024/02/24 08:29:08;;;;;;;5.27;2.83;;;5.10;99.90;;;;;;5019944;28;20486;-60
2024/02/24 08:31:37;;;;;;;4.90;2.83;;;5.10;99.90;;;;;;5022141;28;20835;-61
2024/02/24 08:34:05;;;;;;;2.80;2.50;;;5.10;99.90;;;;;;5020919;28;20465;-61
2024/02/24 08:36:35;;;;;;;4.43;2.63;;;5.10;99.90;;;;;;5021659;28;21212;-61
2024/02/24 08:39:04;;;;;;;3.40;2.30;;;5.10;99.90;;;;;;5021638;28;21083;-61
2024/02/24 08:41:35;;;;;;;6.27;2.87;;;5.20;99.90;;;;;;5022088;28;20970;-60
2024/02/24 08:44:03;;;;;;;4.90;2.80;;;5.20;99.90;;;;;;5020666;28;20497;-59
2024/02/24 08:46:31;;;;;;;4.10;2.40;;;5.30;99.90;;;;;;5015726;28;20490;-61
2024/02/24 08:48:59;;;;;;;3.40;2.73;;;5.30;99.90;;;;;;5019418;28;20498;-62
2024/02/24 08:51:28;;;;;;;3.73;2.40;;;5.30;99.90;;;;;;5019870;28;20769;-62
2024/02/24 08:53:57;;;;;;;5.83;2.63;;;5.30;99.90;;;;;;5013719;28;20554;-60
2024/02/24 08:56:25;;;;;;;3.03;2.43;;;5.30;99.90;;;;;;5017691;28;20586;-61
2024/02/24 08:58:53;;;;;;;6.47;2.97;;;5.30;99.90;;;;;;5023703;28;20485;-61
2024/02/24 09:01:21;;;;;;;3.20;2.40;;;5.40;99.90;;;;;;5023738;28;20553;-61
2024/02/24 09:03:49;;;;;;;2.93;2.60;;;5.40;99.90;;;;;;5020618;28;20477;-61
2024/02/24 09:06:18;;;;;;;5.60;3.07;;;5.50;99.90;;;;;;5013413;28;20502;-59
2024/02/24 09:08:46;;;;;;;6.07;3.03;;;5.60;99.90;;;;;;5018588;28;20853;-61
2024/02/24 09:11:15;;;;;;;3.53;2.27;;;5.60;99.90;;;;;;5021668;28;20470;-62
2024/02/24 09:13:47;;;;;;;3.50;2.23;;;5.70;99.90;;;;;;5021161;28;20475;-61
2024/02/24 09:16:16;;;;;;;2.90;2.60;;;5.70;99.90;;;;;;5016829;28;20629;-60
2024/02/24 09:18:44;;;;;;;5.37;2.93;;;5.80;99.90;;;;;;5012424;28;20483;-61
2024/02/24 09:21:12;;;;;;;4.57;2.53;;;5.80;99.90;;;;;;5019817;28;20480;-61
2024/02/24 09:23:40;;;;;;;3.50;2.50;;;5.90;99.90;;;;;;5022025;28;20467;-61
2024/02/24 09:26:08;;;;;;;3.27;2.60;;;6.00;99.90;;;;;;5022363;28;21201;-61
2024/02/24 09:28:38;;;;;;;6.47;3.07;;;6.00;99.90;;;;;;5018915;28;20497;-61
2024/02/24 09:31:06;;;;;;;3.30;3.00;;;6.00;99.90;;;;;;5020943;28;20471;-61
2024/02/24 09:33:34;;;;;;;5.60;2.67;;;6.10;99.90;;;;;;5018231;28;20569;-60
2024/02/24 09:36:02;;;;;;;3.30;2.30;;;6.10;99.90;;;;;;5016304;28;20615;-61
2024/02/24 09:38:30;;;;;;;2.93;2.50;;;6.20;99.90;;;;;;5018722;28;20494;-60
2024/02/24 09:40:58;;;;;;;4.23;2.97;;;6.30;99.90;;;;;;5023502;28;20479;-60
2024/02/24 09:43:27;;;;;;;3.30;2.50;;;6.30;99.90;;;;;;5020062;28;21070;-61
2024/02/24 09:45:57;;;;;;;3.63;2.63;;;6.30;99.90;;;;;;5012837;28;20850;-60
2024/02/24 09:48:28;;;;;;;5.30;3.00;;;6.40;99.90;;;;;;5016644;28;21654;-61
2024/02/24 09:50:59;;;;;;;3.60;2.53;;;6.40;99.90;;;;;;5020756;28;20494;-61
2024/02/24 09:53:34;;;;;;;4.13;2.63;;;6.50;99.90;;;;;;5023249;28;20464;-60
2024/02/24 09:56:04;;;;;;;6.97;2.90;;;6.50;99.90;;;;;;5021668;28;20518;-61
2024/02/24 09:58:34;;;;;;;3.60;2.60;;;6.60;99.90;;;;;;5017962;28;20517;-60
2024/02/24 10:01:03;;;;;;;3.83;2.47;;;6.60;99.90;;;;;;5017264;28;21014;-61
2024/02/24 10:03:31;;;;;;;3.40;2.80;;;6.60;99.90;;;;;;5029356;28;20949;-61
2024/02/24 10:06:00;;;;;;;4.50;3.03;;;6.70;99.90;;;;;;5024872;28;20495;-60
2024/02/24 10:08:28;;;;;;;3.10;2.80;;;6.70;99.90;;;;;;5026323;28;20505;-61
2024/02/24 10:10:56;;;;;;;11.30;4.07;;;6.80;99.90;;;;;;5025288;28;20890;-61
2024/02/24 10:13:25;;;;;;;3.20;2.90;;;6.80;99.90;;;;;;5022357;28;20478;-60
2024/02/24 10:15:53;;;;;;;3.70;2.80;;;6.80;99.90;;;;;;5019749;28;20508;-60
2024/02/24 10:18:22;;;;;;;3.87;2.83;;;6.90;99.90;;;;;;5026211;28;20519;-61
2024/02/24 10:20:52;;;;;;;5.10;2.97;;;7.00;99.90;;;;;;5026220;28;20583;-60
2024/02/24 10:23:20;;;;;;;2.90;2.70;;;7.00;99.90;;;;;;5026061;28;20479;-64
2024/02/24 10:25:48;;;;;;;3.43;2.53;;;7.10;99.90;;;;;;5024859;28;21093;-61
2024/02/24 10:28:17;;;;;;;3.43;2.80;;;7.20;99.90;;;;;;5023315;28;21050;-62
2024/02/24 10:30:46;;;;;;;4.13;3.00;;;7.30;99.90;;;;;;5017880;28;20858;-60
2024/02/24 10:33:16;;;;;;;4.30;3.00;;;7.50;99.90;;;;;;5011266;28;28758;-61
2024/02/24 10:35:49;;;;;;;3.83;2.80;;;7.60;99.90;;;;;;5020285;28;20947;-60
2024/02/24 10:38:22;;;;;;;3.20;2.70;;;7.70;99.90;;;;;;5021653;28;20490;-60
2024/02/24 10:41:03;;;;;;;2.60;2.40;;;7.90;99.90;;;;;;5018757;28;20478;-65
2024/02/24 10:43:33;;;;;;;3.80;2.30;;;8.10;99.90;;;;;;5019093;28;20609;-63
2024/02/24 10:46:01;;;;;;;2.50;2.30;;;8.30;99.90;;;;;;5017109;28;21017;-60
2024/02/24 10:48:29;;;;;;;6.73;2.67;;;8.50;99.90;;;;;;5019497;28;21097;-61
2024/02/24 10:50:59;;;;;;;3.80;2.20;;;8.60;99.90;;;;;;5019143;28;23888;-59
2024/02/24 10:53:31;;;;;;;3.57;2.70;;;8.80;99.90;;;;;;5019556;28;20562;-58
2024/02/24 10:56:01;;;;;;;2.47;2.23;;;8.80;99.90;;;;;;5012099;28;20491;-58
2024/02/24 10:58:30;;;;;;;4.40;2.60;;;8.80;99.90;;;;;;5020894;28;20494;-63
2024/02/24 11:00:58;;;;;;;3.53;2.50;;;8.70;99.90;;;;;;5021771;28;20898;-63
2024/02/24 11:03:26;;;;;;;3.80;2.83;;;8.70;99.90;;;;;;5024040;28;20600;-59
2024/02/24 11:05:54;;;;;;;2.90;2.43;;;8.70;99.90;;;;;;5019653;28;20494;-61
2024/02/24 11:08:44;;;;;;;2.90;2.47;;;8.70;99.90;;;;;;5016358;28;20505;-59
2024/02/24 11:11:14;;;;;;;2.77;2.20;;;8.60;99.90;;;;;;5023339;28;20981;-58
2024/02/24 11:13:46;;;;;;;5.03;2.37;;;8.60;99.90;;;;;;5022559;28;20466;-58
2024/02/24 11:16:35;;;;;;;4.47;2.67;;;8.60;99.90;;;;;;5023381;28;20484;-57
2024/02/24 11:19:05;;;;;;;4.90;2.30;;;8.60;99.90;;;;;;5022582;28;20490;-58
2024/02/24 11:21:59;;;;;;;3.37;1.80;;;8.50;99.90;;;;;;5024098;28;20475;-59
2024/02/24 11:24:35;;;;;;;2.27;2.07;;;8.50;99.90;;;;;;5016448;28;20601;-59
2024/02/24 11:27:04;;;;;;;2.60;1.97;;;8.50;99.90;;;;;;5014691;28;20971;-59
2024/02/24 11:29:35;;;;;;;2.63;2.27;;;8.50;99.90;;;;;;5025516;28;20471;-59
2024/02/24 11:32:11;;;;;;;1.73;1.63;;;8.50;99.90;;;;;;5026700;28;21000;-59
2024/02/24 11:34:43;;;;;;;2.77;2.23;;;8.60;99.90;;;;;;5022012;28;20473;-58
2024/02/24 11:37:15;;;;;;;2.10;2.00;;;8.70;99.90;;;;;;5025994;28;20580;-58
2024/02/24 11:39:47;;;;;;;2.43;1.83;;;8.80;99.90;;;;;;5028891;28;20581;-58
2024/02/24 11:42:15;;;;;;;2.30;2.07;;;9.00;99.90;;;;;;5027885;28;21098;-60
2024/02/24 11:44:45;;;;;;;1.90;1.80;;;9.10;99.90;;;;;;5030875;28;20483;-59
2024/02/24 11:47:17;;;;;;;3.63;2.43;;;9.20;99.90;;;;;;5030469;28;20539;-59
2024/02/24 11:49:47;;;;;;;1.90;1.73;;;9.20;99.90;;;;;;5031686;28;20470;-59
2024/02/24 11:52:16;;;;;;;2.27;1.93;;;9.20;99.90;;;;;;5029948;28;20486;-58
2024/02/24 11:54:46;;;;;;;5.30;2.07;;;9.20;99.90;;;;;;5024797;28;20532;-59
2024/02/24 11:57:14;;;;;;;2.83;1.90;;;9.30;99.90;;;;;;5031615;28;20490;-59
2024/02/24 11:59:42;;;;;;;3.00;2.03;;;9.20;99.90;;;;;;5027377;28;20478;-59
2024/02/24 12:02:15;;;;;;;3.60;2.20;;;9.20;99.90;;;;;;5022005;28;20554;-62
2024/02/24 12:04:43;;;;;;;2.17;1.93;;;9.20;99.90;;;;;;5030187;28;20471;-62
2024/02/24 12:07:11;;;;;;;2.80;2.03;;;9.10;99.90;;;;;;5021909;28;20494;-64
2024/02/24 12:09:39;;;;;;;3.37;2.10;;;9.10;99.90;;;;;;5023338;28;20553;-63
2024/02/24 12:12:09;;;;;;;2.10;1.77;;;9.10;99.90;;;;;;5025903;28;20977;-63
2024/02/24 12:14:37;;;;;;;2.60;1.97;;;9.10;99.90;;;;;;5035096;28;20462;-62
2024/02/24 12:17:05;;;;;;;2.80;1.90;;;9.20;99.90;;;;;;5030376;28;20486;-61
2024/02/24 12:19:35;;;;;;;1.63;1.53;;;9.30;99.90;;;;;;5035583;28;21011;-60
2024/02/24 12:22:08;;;;;;;3.20;1.80;;;9.40;99.90;;;;;;5039467;28;20474;-59
2024/02/24 12:24:37;;;;;;;2.20;1.50;;;9.50;99.90;;;;;;5035410;28;21036;-59
2024/02/24 12:27:08;;;;;;;2.37;1.70;;;9.50;99.90;;;;;;5026916;28;20493;-59
2024/02/24 12:29:38;;;;;;;2.87;1.70;;;9.40;99.90;;;;;;5035819;28;20533;-59
2024/02/24 12:32:07;;;;;;;1.30;1.20;;;9.30;99.90;;;;;;5030792;28;20487;-60
2024/02/24 12:34:36;;;;;;;2.50;1.20;;;9.30;99.90;;;;;;5033153;28;20477;-59
2024/02/24 12:37:05;;;;;;;1.70;1.60;;;9.20;99.90;;;;;;5036805;28;20883;-59
2024/02/24 12:39:34;;;;;;;1.63;1.53;;;9.20;99.90;;;;;;5036595;28;20473;-60
2024/02/24 12:42:02;;;;;;;1.60;1.50;;;9.30;99.90;;;;;;5039095;28;20549;-59
2024/02/24 12:44:31;;;;;;;2.63;1.70;;;9.30;99.90;;;;;;5035910;28;20481;-60
2024/02/24 12:47:00;;;;;;;1.43;1.33;;;9.40;99.90;;;;;;5037636;28;20482;-60
2024/02/24 12:49:28;;;;;;;2.00;1.60;;;9.30;99.90;;;;;;5040272;28;20557;-60
2024/02/24 12:51:56;;;;;;;1.77;1.47;;;9.40;99.90;;;;;;5036995;28;20564;-60
2024/02/24 12:54:24;;;;;;;1.50;1.40;;;9.70;99.90;;;;;;5038750;28;20648;-59
2024/02/24 12:56:52;;;;;;;1.30;1.20;;;10.00;99.90;;;;;;5037298;28;20501;-59
2024/02/24 12:59:22;;;;;;;2.27;2.07;;;10.20;99.90;;;;;;5027101;28;20485;-59
2024/02/24 13:01:50;;;;;;;1.90;1.50;;;10.30;99.90;;;;;;5027829;28;20481;-59
2024/02/24 13:04:19;;;;;;;1.50;1.40;;;10.10;99.90;;;;;;5025200;28;20471;-60
2024/02/24 13:06:47;;;;;;;1.60;1.50;;;10.00;99.90;;;;;;5034838;28;20515;-59